sensor_id;sensor_type;location;lat;lon;timestamp;temperature;humidity
78731;SHT31;68055;51.978;5.658;2023-06-04T00:00:42;17.9;42.2
78731;SHT31;68055;51.978;5.658;2023-06-04T00:03:11;17.9;42.5
78731;SHT31;68055;51.978;5.658;2023-06-04T00:05:41;17.9;42.6
78731;SHT31;68055;51.978;5.658;2023-06-04T00:08:11;17.8;42.4
78731;SHT31;68055;51.978;5.658;2023-06-04T00:10:40;17.8;42.4
78731;SHT31;68055;51.978;5.658;2023-06-04T00:13:10;17.8;42.7
78731;SHT31;68055;51.978;5.658;2023-06-04T00:15:39;17.7;42.7
78731;SHT31;68055;51.978;5.658;2023-06-04T00:18:09;17.7;42.6
78731;SHT31;68055;51.978;5.658;2023-06-04T00:20:41;17.6;42.5
78731;SHT31;68055;51.978;5.658;2023-06-04T00:23:10;17.6;42.4
78731;SHT31;68055;51.978;5.658;2023-06-04T00:25:41;17.6;42.7
78731;SHT31;68055;51.978;5.658;2023-06-04T00:28:11;17.5;42.7
78731;SHT31;68055;51.978;5.658;2023-06-04T00:30:40;17.5;42.8
78731;SHT31;68055;51.978;5.658;2023-06-04T00:33:10;17.5;42.7
78731;SHT31;68055;51.978;5.658;2023-06-04T00:35:41;17.4;42.9
78731;SHT31;68055;51.978;5.658;2023-06-04T00:38:11;17.4;42.9
78731;SHT31;68055;51.978;5.658;2023-06-04T00:40:40;17.4;42.8
78731;SHT31;68055;51.978;5.658;2023-06-04T00:43:10;17.3;42.7
78731;SHT31;68055;51.978;5.658;2023-06-04T00:45:41;17.3;42.7
78731;SHT31;68055;51.978;5.658;2023-06-04T00:48:13;17.2;42.9
78731;SHT31;68055;51.978;5.658;2023-06-04T00:50:43;17.2;43.1
78731;SHT31;68055;51.978;5.658;2023-06-04T00:53:13;17.1;43.0
78731;SHT31;68055;51.978;5.658;2023-06-04T00:55:42;17.1;43.2
78731;SHT31;68055;51.978;5.658;2023-06-04T00:58:12;17.1;43.2
78731;SHT31;68055;51.978;5.658;2023-06-04T01:00:43;17.0;43.3
78731;SHT31;68055;51.978;5.658;2023-06-04T01:03:18;17.0;43.5
78731;SHT31;68055;51.978;5.658;2023-06-04T01:05:57;16.9;43.4
78731;SHT31;68055;51.978;5.658;2023-06-04T01:08:31;16.9;43.6
78731;SHT31;68055;51.978;5.658;2023-06-04T01:11:01;16.9;43.7
78731;SHT31;68055;51.978;5.658;2023-06-04T01:13:30;16.8;43.7
78731;SHT31;68055;51.978;5.658;2023-06-04T01:16:00;16.8;43.9
78731;SHT31;68055;51.978;5.658;2023-06-04T01:18:35;16.8;44.1
78731;SHT31;68055;51.978;5.658;2023-06-04T01:21:08;16.7;43.9
78731;SHT31;68055;51.978;5.658;2023-06-04T01:23:46;16.7;44.0
78731;SHT31;68055;51.978;5.658;2023-06-04T01:26:23;16.7;44.2
78731;SHT31;68055;51.978;5.658;2023-06-04T01:28:55;16.6;44.2
78731;SHT31;68055;51.978;5.658;2023-06-04T01:31:25;16.6;44.2
78731;SHT31;68055;51.978;5.658;2023-06-04T01:34:02;16.6;44.0
78731;SHT31;68055;51.978;5.658;2023-06-04T01:36:31;16.5;44.2
78731;SHT31;68055;51.978;5.658;2023-06-04T01:39:01;16.5;44.2
78731;SHT31;68055;51.978;5.658;2023-06-04T01:41:31;16.5;44.3
78731;SHT31;68055;51.978;5.658;2023-06-04T01:44:00;16.4;44.0
78731;SHT31;68055;51.978;5.658;2023-06-04T01:46:30;16.4;44.3
78731;SHT31;68055;51.978;5.658;2023-06-04T01:48:59;16.4;44.6
78731;SHT31;68055;51.978;5.658;2023-06-04T01:51:29;16.3;44.5
78731;SHT31;68055;51.978;5.658;2023-06-04T01:54:00;16.3;44.6
78731;SHT31;68055;51.978;5.658;2023-06-04T01:56:29;16.3;44.8
78731;SHT31;68055;51.978;5.658;2023-06-04T01:59:00;16.4;44.7
78731;SHT31;68055;51.978;5.658;2023-06-04T02:01:29;16.4;44.6
78731;SHT31;68055;51.978;5.658;2023-06-04T02:03:59;16.5;44.2
78731;SHT31;68055;51.978;5.658;2023-06-04T02:06:30;16.6;44.0
78731;SHT31;68055;51.978;5.658;2023-06-04T02:09:00;16.6;43.9
78731;SHT31;68055;51.978;5.658;2023-06-04T02:11:31;16.6;43.6
78731;SHT31;68055;51.978;5.658;2023-06-04T02:14:00;16.6;43.7
78731;SHT31;68055;51.978;5.658;2023-06-04T02:16:30;16.5;43.7
78731;SHT31;68055;51.978;5.658;2023-06-04T02:18:59;16.5;43.7
78731;SHT31;68055;51.978;5.658;2023-06-04T02:21:30;16.4;43.8
78731;SHT31;68055;51.978;5.658;2023-06-04T02:24:00;16.4;43.8
78731;SHT31;68055;51.978;5.658;2023-06-04T02:26:29;16.3;44.0
78731;SHT31;68055;51.978;5.658;2023-06-04T02:28:59;16.3;44.2
78731;SHT31;68055;51.978;5.658;2023-06-04T02:31:29;16.2;44.0
78731;SHT31;68055;51.978;5.658;2023-06-04T02:33:59;16.2;44.1
78731;SHT31;68055;51.978;5.658;2023-06-04T02:36:29;16.1;44.8
78731;SHT31;68055;51.978;5.658;2023-06-04T02:38:59;16.1;44.6
78731;SHT31;68055;51.978;5.658;2023-06-04T02:41:28;16.0;44.4
78731;SHT31;68055;51.978;5.658;2023-06-04T02:43:58;16.0;44.6
78731;SHT31;68055;51.978;5.658;2023-06-04T02:46:28;16.0;44.8
78731;SHT31;68055;51.978;5.658;2023-06-04T02:48:57;15.9;44.7
78731;SHT31;68055;51.978;5.658;2023-06-04T02:51:27;15.9;44.5
78731;SHT31;68055;51.978;5.658;2023-06-04T02:53:58;15.9;45.0
78731;SHT31;68055;51.978;5.658;2023-06-04T02:56:28;15.9;44.7
78731;SHT31;68055;51.978;5.658;2023-06-04T02:58:58;15.8;44.7
78731;SHT31;68055;51.978;5.658;2023-06-04T03:01:27;15.8;45.0
78731;SHT31;68055;51.978;5.658;2023-06-04T03:03:58;15.8;45.5
78731;SHT31;68055;51.978;5.658;2023-06-04T03:06:31;15.7;45.0
78731;SHT31;68055;51.978;5.658;2023-06-04T03:09:02;15.7;44.8
78731;SHT31;68055;51.978;5.658;2023-06-04T03:11:31;15.7;45.5
78731;SHT31;68055;51.978;5.658;2023-06-04T03:14:03;15.7;46.1
78731;SHT31;68055;51.978;5.658;2023-06-04T03:16:32;15.6;46.0
78731;SHT31;68055;51.978;5.658;2023-06-04T03:19:02;15.6;45.9
78731;SHT31;68055;51.978;5.658;2023-06-04T03:21:33;15.6;45.8
78731;SHT31;68055;51.978;5.658;2023-06-04T03:24:07;15.6;46.0
78731;SHT31;68055;51.978;5.658;2023-06-04T03:26:37;15.6;45.9
78731;SHT31;68055;51.978;5.658;2023-06-04T03:29:07;15.6;46.5
78731;SHT31;68055;51.978;5.658;2023-06-04T03:31:36;15.6;46.7
78731;SHT31;68055;51.978;5.658;2023-06-04T03:34:06;15.5;46.8
78731;SHT31;68055;51.978;5.658;2023-06-04T03:36:37;15.5;46.8
78731;SHT31;68055;51.978;5.658;2023-06-04T03:39:07;15.5;46.3
78731;SHT31;68055;51.978;5.658;2023-06-04T03:41:37;15.5;46.5
78731;SHT31;68055;51.978;5.658;2023-06-04T03:44:09;15.5;46.6
78731;SHT31;68055;51.978;5.658;2023-06-04T03:46:38;15.5;46.6
78731;SHT31;68055;51.978;5.658;2023-06-04T03:49:08;15.4;46.2
78731;SHT31;68055;51.978;5.658;2023-06-04T03:51:38;15.4;46.3
78731;SHT31;68055;51.978;5.658;2023-06-04T03:54:09;15.4;46.9
78731;SHT31;68055;51.978;5.658;2023-06-04T03:56:39;15.4;47.5
78731;SHT31;68055;51.978;5.658;2023-06-04T03:59:09;15.4;47.5
78731;SHT31;68055;51.978;5.658;2023-06-04T04:01:38;15.4;46.9
78731;SHT31;68055;51.978;5.658;2023-06-04T04:04:09;15.4;47.0
78731;SHT31;68055;51.978;5.658;2023-06-04T04:06:39;15.4;47.3
78731;SHT31;68055;51.978;5.658;2023-06-04T04:09:08;15.3;47.2
78731;SHT31;68055;51.978;5.658;2023-06-04T04:11:38;15.3;47.6
78731;SHT31;68055;51.978;5.658;2023-06-04T04:14:10;15.4;47.3
78731;SHT31;68055;51.978;5.658;2023-06-04T04:16:39;15.4;47.5
78731;SHT31;68055;51.978;5.658;2023-06-04T04:19:09;15.4;48.0
78731;SHT31;68055;51.978;5.658;2023-06-04T04:21:41;15.4;48.0
78731;SHT31;68055;51.978;5.658;2023-06-04T04:24:10;15.4;47.0
78731;SHT31;68055;51.978;5.658;2023-06-04T04:26:40;15.4;47.3
78731;SHT31;68055;51.978;5.658;2023-06-04T04:29:10;15.4;47.7
78731;SHT31;68055;51.978;5.658;2023-06-04T04:31:40;15.4;47.1
78731;SHT31;68055;51.978;5.658;2023-06-04T04:34:09;15.4;48.1
78731;SHT31;68055;51.978;5.658;2023-06-04T04:36:39;15.4;48.5
78731;SHT31;68055;51.978;5.658;2023-06-04T04:39:09;15.4;47.7
78731;SHT31;68055;51.978;5.658;2023-06-04T04:41:39;15.4;47.3
78731;SHT31;68055;51.978;5.658;2023-06-04T04:44:08;15.4;48.2
78731;SHT31;68055;51.978;5.658;2023-06-04T04:46:40;15.4;47.7
78731;SHT31;68055;51.978;5.658;2023-06-04T04:49:09;15.4;47.8
78731;SHT31;68055;51.978;5.658;2023-06-04T04:51:39;15.4;48.9
78731;SHT31;68055;51.978;5.658;2023-06-04T04:54:09;15.4;48.1
78731;SHT31;68055;51.978;5.658;2023-06-04T04:56:38;15.4;48.6
78731;SHT31;68055;51.978;5.658;2023-06-04T04:59:08;15.4;48.8
78731;SHT31;68055;51.978;5.658;2023-06-04T05:01:38;15.5;48.5
78731;SHT31;68055;51.978;5.658;2023-06-04T05:04:07;15.5;49.1
78731;SHT31;68055;51.978;5.658;2023-06-04T05:06:37;15.5;49.1
78731;SHT31;68055;51.978;5.658;2023-06-04T05:09:07;15.6;48.9
78731;SHT31;68055;51.978;5.658;2023-06-04T05:11:37;15.7;48.5
78731;SHT31;68055;51.978;5.658;2023-06-04T05:14:07;15.8;49.1
78731;SHT31;68055;51.978;5.658;2023-06-04T05:16:38;15.9;48.4
78731;SHT31;68055;51.978;5.658;2023-06-04T05:19:08;15.9;48.7
78731;SHT31;68055;51.978;5.658;2023-06-04T05:21:40;15.9;48.6
78731;SHT31;68055;51.978;5.658;2023-06-04T05:24:11;16.0;48.0
78731;SHT31;68055;51.978;5.658;2023-06-04T05:26:40;16.0;49.0
78731;SHT31;68055;51.978;5.658;2023-06-04T05:29:10;16.0;49.5
78731;SHT31;68055;51.978;5.658;2023-06-04T05:31:41;16.0;49.3
78731;SHT31;68055;51.978;5.658;2023-06-04T05:34:13;16.0;49.4
78731;SHT31;68055;51.978;5.658;2023-06-04T05:36:43;16.0;49.8
78731;SHT31;68055;51.978;5.658;2023-06-04T05:39:13;16.0;49.0
78731;SHT31;68055;51.978;5.658;2023-06-04T05:41:43;16.1;50.2
78731;SHT31;68055;51.978;5.658;2023-06-04T05:44:12;16.1;49.8
78731;SHT31;68055;51.978;5.658;2023-06-04T05:46:42;16.2;49.7
78731;SHT31;68055;51.978;5.658;2023-06-04T05:49:12;16.3;49.3
78731;SHT31;68055;51.978;5.658;2023-06-04T05:51:42;16.4;48.9
78731;SHT31;68055;51.978;5.658;2023-06-04T05:54:11;16.5;49.1
78731;SHT31;68055;51.978;5.658;2023-06-04T05:56:41;16.6;50.3
78731;SHT31;68055;51.978;5.658;2023-06-04T05:59:11;16.7;50.5
78731;SHT31;68055;51.978;5.658;2023-06-04T06:01:40;16.9;48.2
78731;SHT31;68055;51.978;5.658;2023-06-04T06:04:10;17.1;48.3
78731;SHT31;68055;51.978;5.658;2023-06-04T06:06:40;17.3;47.9
78731;SHT31;68055;51.978;5.658;2023-06-04T06:09:11;17.6;47.8
78731;SHT31;68055;51.978;5.658;2023-06-04T06:11:40;17.8;46.2
78731;SHT31;68055;51.978;5.658;2023-06-04T06:14:10;18.1;47.9
78731;SHT31;68055;51.978;5.658;2023-06-04T06:16:40;18.3;47.3
78731;SHT31;68055;51.978;5.658;2023-06-04T06:19:10;18.5;46.2
78731;SHT31;68055;51.978;5.658;2023-06-04T06:21:40;18.8;46.2
78731;SHT31;68055;51.978;5.658;2023-06-04T06:24:10;19.0;45.2
78731;SHT31;68055;51.978;5.658;2023-06-04T06:26:39;19.3;45.0
78731;SHT31;68055;51.978;5.658;2023-06-04T06:29:10;19.4;45.4
78731;SHT31;68055;51.978;5.658;2023-06-04T06:31:41;19.6;43.2
78731;SHT31;68055;51.978;5.658;2023-06-04T06:34:11;19.8;42.7
78731;SHT31;68055;51.978;5.658;2023-06-04T06:36:40;20.0;42.2
78731;SHT31;68055;51.978;5.658;2023-06-04T06:39:10;20.2;41.0
78731;SHT31;68055;51.978;5.658;2023-06-04T06:41:41;20.3;41.6
78731;SHT31;68055;51.978;5.658;2023-06-04T06:44:13;20.5;40.9
78731;SHT31;68055;51.978;5.658;2023-06-04T06:46:42;20.6;40.6
78731;SHT31;68055;51.978;5.658;2023-06-04T06:49:12;20.8;41.5
78731;SHT31;68055;51.978;5.658;2023-06-04T06:51:42;21.0;41.2
78731;SHT31;68055;51.978;5.658;2023-06-04T06:54:14;21.1;39.9
78731;SHT31;68055;51.978;5.658;2023-06-04T06:56:49;21.3;40.1
78731;SHT31;68055;51.978;5.658;2023-06-04T06:59:20;21.5;38.9
78731;SHT31;68055;51.978;5.658;2023-06-04T07:01:50;21.7;38.2
78731;SHT31;68055;51.978;5.658;2023-06-04T07:04:20;21.9;38.4
78731;SHT31;68055;51.978;5.658;2023-06-04T07:06:50;22.0;37.9
78731;SHT31;68055;51.978;5.658;2023-06-04T07:09:21;22.1;37.1
78731;SHT31;68055;51.978;5.658;2023-06-04T07:11:50;22.2;36.1
78731;SHT31;68055;51.978;5.658;2023-06-04T07:14:20;22.3;36.2
78731;SHT31;68055;51.978;5.658;2023-06-04T07:16:50;22.4;36.5
78731;SHT31;68055;51.978;5.658;2023-06-04T07:19:19;22.6;37.1
78731;SHT31;68055;51.978;5.658;2023-06-04T07:21:49;22.9;35.7
78731;SHT31;68055;51.978;5.658;2023-06-04T07:24:19;23.2;36.2
78731;SHT31;68055;51.978;5.658;2023-06-04T07:26:49;23.6;34.8
78731;SHT31;68055;51.978;5.658;2023-06-04T07:29:19;23.9;35.4
78731;SHT31;68055;51.978;5.658;2023-06-04T07:31:48;24.3;34.0
78731;SHT31;68055;51.978;5.658;2023-06-04T07:34:18;24.6;33.0
78731;SHT31;68055;51.978;5.658;2023-06-04T07:36:47;24.8;31.3
78731;SHT31;68055;51.978;5.658;2023-06-04T07:39:17;25.0;31.4
78731;SHT31;68055;51.978;5.658;2023-06-04T07:41:47;25.2;31.4
78731;SHT31;68055;51.978;5.658;2023-06-04T07:44:17;25.3;31.5
78731;SHT31;68055;51.978;5.658;2023-06-04T07:46:48;25.3;30.3
78731;SHT31;68055;51.978;5.658;2023-06-04T07:49:18;25.4;31.9
78731;SHT31;68055;51.978;5.658;2023-06-04T07:51:48;25.5;30.9
78731;SHT31;68055;51.978;5.658;2023-06-04T07:54:17;25.5;30.5
78731;SHT31;68055;51.978;5.658;2023-06-04T07:56:47;25.6;31.2
78731;SHT31;68055;51.978;5.658;2023-06-04T07:59:16;25.6;29.9
78731;SHT31;68055;51.978;5.658;2023-06-04T08:01:46;25.7;29.1
78731;SHT31;68055;51.978;5.658;2023-06-04T08:04:16;25.7;29.6
78731;SHT31;68055;51.978;5.658;2023-06-04T08:06:45;25.8;29.1
78731;SHT31;68055;51.978;5.658;2023-06-04T08:09:17;25.9;29.7
78731;SHT31;68055;51.978;5.658;2023-06-04T08:11:47;26.0;29.0
78731;SHT31;68055;51.978;5.658;2023-06-04T08:14:18;26.1;29.1
78731;SHT31;68055;51.978;5.658;2023-06-04T08:16:55;26.2;29.0
78731;SHT31;68055;51.978;5.658;2023-06-04T08:19:27;26.5;28.4
78731;SHT31;68055;51.978;5.658;2023-06-04T08:21:56;26.8;27.8
78731;SHT31;68055;51.978;5.658;2023-06-04T08:24:26;27.0;27.9
78731;SHT31;68055;51.978;5.658;2023-06-04T08:26:55;27.3;26.8
78731;SHT31;68055;51.978;5.658;2023-06-04T08:29:24;27.4;26.1
78731;SHT31;68055;51.978;5.658;2023-06-04T08:31:54;27.5;25.9
78731;SHT31;68055;51.978;5.658;2023-06-04T08:34:24;27.6;25.4
78731;SHT31;68055;51.978;5.658;2023-06-04T08:36:53;27.6;26.4
78731;SHT31;68055;51.978;5.658;2023-06-04T08:39:23;27.7;25.8
78731;SHT31;68055;51.978;5.658;2023-06-04T08:41:59;27.8;26.2
78731;SHT31;68055;51.978;5.658;2023-06-04T08:44:30;27.8;25.0
78731;SHT31;68055;51.978;5.658;2023-06-04T08:47:02;27.9;24.7
78731;SHT31;68055;51.978;5.658;2023-06-04T08:49:35;28.0;25.1
78731;SHT31;68055;51.978;5.658;2023-06-04T08:52:08;28.0;23.5
78731;SHT31;68055;51.978;5.658;2023-06-04T08:54:38;28.0;23.7
78731;SHT31;68055;51.978;5.658;2023-06-04T08:57:08;28.1;25.3
78731;SHT31;68055;51.978;5.658;2023-06-04T08:59:41;28.1;24.6
78731;SHT31;68055;51.978;5.658;2023-06-04T09:02:12;28.1;24.7
78731;SHT31;68055;51.978;5.658;2023-06-04T09:04:42;28.2;23.9
78731;SHT31;68055;51.978;5.658;2023-06-04T09:07:16;28.3;23.4
78731;SHT31;68055;51.978;5.658;2023-06-04T09:09:47;28.4;23.8
78731;SHT31;68055;51.978;5.658;2023-06-04T09:12:23;28.5;24.3
78731;SHT31;68055;51.978;5.658;2023-06-04T09:14:54;28.5;24.6
78731;SHT31;68055;51.978;5.658;2023-06-04T09:17:25;28.6;25.1
78731;SHT31;68055;51.978;5.658;2023-06-04T09:19:54;28.7;24.9
78731;SHT31;68055;51.978;5.658;2023-06-04T09:22:34;28.9;23.8
78731;SHT31;68055;51.978;5.658;2023-06-04T09:25:06;29.0;23.4
78731;SHT31;68055;51.978;5.658;2023-06-04T09:27:40;29.2;21.9
78731;SHT31;68055;51.978;5.658;2023-06-04T09:30:12;29.2;22.2
78731;SHT31;68055;51.978;5.658;2023-06-04T09:32:42;29.3;21.8
78731;SHT31;68055;51.978;5.658;2023-06-04T09:35:13;29.4;22.4
78731;SHT31;68055;51.978;5.658;2023-06-04T09:37:53;29.5;22.6
78731;SHT31;68055;51.978;5.658;2023-06-04T09:40:24;29.5;21.3
78731;SHT31;68055;51.978;5.658;2023-06-04T09:42:53;29.6;21.2
78731;SHT31;68055;51.978;5.658;2023-06-04T09:45:31;29.7;22.1
78731;SHT31;68055;51.978;5.658;2023-06-04T09:48:03;29.8;21.6
78731;SHT31;68055;51.978;5.658;2023-06-04T09:50:34;29.9;21.4
78731;SHT31;68055;51.978;5.658;2023-06-04T09:53:14;30.1;21.7
78731;SHT31;68055;51.978;5.658;2023-06-04T09:55:57;30.2;20.5
78731;SHT31;68055;51.978;5.658;2023-06-04T09:58:29;30.4;20.6
78731;SHT31;68055;51.978;5.658;2023-06-04T10:01:00;30.4;21.0
78731;SHT31;68055;51.978;5.658;2023-06-04T10:03:33;30.5;21.2
78731;SHT31;68055;51.978;5.658;2023-06-04T10:06:04;30.6;21.7
78731;SHT31;68055;51.978;5.658;2023-06-04T10:08:34;30.8;21.1
78731;SHT31;68055;51.978;5.658;2023-06-04T10:11:05;30.9;19.9
78731;SHT31;68055;51.978;5.658;2023-06-04T10:13:43;31.0;20.6
78731;SHT31;68055;51.978;5.658;2023-06-04T10:16:15;31.0;20.3
78731;SHT31;68055;51.978;5.658;2023-06-04T10:18:45;31.1;19.2
78731;SHT31;68055;51.978;5.658;2023-06-04T10:21:17;31.2;19.5
78731;SHT31;68055;51.978;5.658;2023-06-04T10:23:50;31.3;19.3
78731;SHT31;68055;51.978;5.658;2023-06-04T10:26:19;31.4;19.5
78731;SHT31;68055;51.978;5.658;2023-06-04T10:28:49;31.4;20.0
78731;SHT31;68055;51.978;5.658;2023-06-04T10:31:19;31.5;21.1
78731;SHT31;68055;51.978;5.658;2023-06-04T10:33:53;31.6;20.5
78731;SHT31;68055;51.978;5.658;2023-06-04T10:36:24;31.8;19.9
78731;SHT31;68055;51.978;5.658;2023-06-04T10:38:56;31.9;19.4
78731;SHT31;68055;51.978;5.658;2023-06-04T10:41:26;32.0;19.7
78731;SHT31;68055;51.978;5.658;2023-06-04T10:44:04;32.1;20.6
78731;SHT31;68055;51.978;5.658;2023-06-04T10:46:40;32.3;19.0
78731;SHT31;68055;51.978;5.658;2023-06-04T10:49:11;32.4;19.3
78731;SHT31;68055;51.978;5.658;2023-06-04T10:51:42;32.5;19.5
78731;SHT31;68055;51.978;5.658;2023-06-04T10:54:23;32.6;18.3
78731;SHT31;68055;51.978;5.658;2023-06-04T10:56:55;32.7;20.3
78731;SHT31;68055;51.978;5.658;2023-06-04T10:59:24;32.8;19.9
78731;SHT31;68055;51.978;5.658;2023-06-04T11:02:06;32.9;18.7
78731;SHT31;68055;51.978;5.658;2023-06-04T11:04:36;33.0;19.2
78731;SHT31;68055;51.978;5.658;2023-06-04T11:07:07;33.0;19.1
78731;SHT31;68055;51.978;5.658;2023-06-04T11:09:49;33.1;19.3
78731;SHT31;68055;51.978;5.658;2023-06-04T11:12:19;33.2;18.8
78731;SHT31;68055;51.978;5.658;2023-06-04T11:14:58;33.2;18.8
78731;SHT31;68055;51.978;5.658;2023-06-04T11:17:27;33.3;18.6
78731;SHT31;68055;51.978;5.658;2023-06-04T11:19:58;33.4;17.6
78731;SHT31;68055;51.978;5.658;2023-06-04T11:22:28;33.4;17.8
78731;SHT31;68055;51.978;5.658;2023-06-04T11:24:58;33.4;18.2
78731;SHT31;68055;51.978;5.658;2023-06-04T11:27:35;33.5;18.5
78731;SHT31;68055;51.978;5.658;2023-06-04T11:30:06;33.5;18.2
78731;SHT31;68055;51.978;5.658;2023-06-04T11:32:36;33.5;18.0
78731;SHT31;68055;51.978;5.658;2023-06-04T11:35:07;33.5;18.0
78731;SHT31;68055;51.978;5.658;2023-06-04T11:37:39;33.4;17.9
78731;SHT31;68055;51.978;5.658;2023-06-04T11:40:19;33.2;18.3
78731;SHT31;68055;51.978;5.658;2023-06-04T11:42:50;32.9;18.6
78731;SHT31;68055;51.978;5.658;2023-06-04T11:45:21;32.7;18.8
78731;SHT31;68055;51.978;5.658;2023-06-04T11:47:55;32.4;18.9
78731;SHT31;68055;51.978;5.658;2023-06-04T11:50:27;32.1;20.1
78731;SHT31;68055;51.978;5.658;2023-06-04T11:52:58;31.8;20.1
78731;SHT31;68055;51.978;5.658;2023-06-04T11:55:29;31.6;20.5
78731;SHT31;68055;51.978;5.658;2023-06-04T11:57:59;31.4;20.5
78731;SHT31;68055;51.978;5.658;2023-06-04T12:00:29;31.3;20.9
78731;SHT31;68055;51.978;5.658;2023-06-04T12:02:59;31.1;20.9
78731;SHT31;68055;51.978;5.658;2023-06-04T12:05:31;30.9;20.5
78731;SHT31;68055;51.978;5.658;2023-06-04T12:08:09;30.8;21.2
78731;SHT31;68055;51.978;5.658;2023-06-04T12:10:40;30.6;21.2
78731;SHT31;68055;51.978;5.658;2023-06-04T12:13:10;30.5;21.2
78731;SHT31;68055;51.978;5.658;2023-06-04T12:15:40;30.3;21.7
78731;SHT31;68055;51.978;5.658;2023-06-04T12:18:10;30.2;21.0
78731;SHT31;68055;51.978;5.658;2023-06-04T12:20:42;30.1;22.1
78731;SHT31;68055;51.978;5.658;2023-06-04T12:23:20;30.0;22.0
78731;SHT31;68055;51.978;5.658;2023-06-04T12:25:51;29.9;22.1
78731;SHT31;68055;51.978;5.658;2023-06-04T12:28:21;29.8;22.6
78731;SHT31;68055;51.978;5.658;2023-06-04T12:30:50;29.7;23.0
78731;SHT31;68055;51.978;5.658;2023-06-04T12:33:20;29.6;22.8
78731;SHT31;68055;51.978;5.658;2023-06-04T12:35:49;29.5;22.5
78731;SHT31;68055;51.978;5.658;2023-06-04T12:38:19;29.5;22.6
78731;SHT31;68055;51.978;5.658;2023-06-04T12:40:49;29.4;21.7
78731;SHT31;68055;51.978;5.658;2023-06-04T12:43:18;29.4;22.8
78731;SHT31;68055;51.978;5.658;2023-06-04T12:45:48;29.3;22.9
78731;SHT31;68055;51.978;5.658;2023-06-04T12:48:18;29.2;23.1
78731;SHT31;68055;51.978;5.658;2023-06-04T12:50:47;29.1;22.8
78731;SHT31;68055;51.978;5.658;2023-06-04T12:53:18;29.0;23.2
78731;SHT31;68055;51.978;5.658;2023-06-04T12:55:48;29.0;22.9
78731;SHT31;68055;51.978;5.658;2023-06-04T12:58:18;28.9;23.7
78731;SHT31;68055;51.978;5.658;2023-06-04T13:00:47;28.9;22.8
78731;SHT31;68055;51.978;5.658;2023-06-04T13:03:17;28.8;23.5
78731;SHT31;68055;51.978;5.658;2023-06-04T13:05:47;28.8;23.9
78731;SHT31;68055;51.978;5.658;2023-06-04T13:08:19;28.7;24.1
78731;SHT31;68055;51.978;5.658;2023-06-04T13:10:50;28.7;24.6
78731;SHT31;68055;51.978;5.658;2023-06-04T13:13:20;28.7;24.6
78731;SHT31;68055;51.978;5.658;2023-06-04T13:15:50;28.7;24.1
78731;SHT31;68055;51.978;5.658;2023-06-04T13:18:19;28.7;24.3
78731;SHT31;68055;51.978;5.658;2023-06-04T13:20:49;28.7;23.6
78731;SHT31;68055;51.978;5.658;2023-06-04T13:23:21;28.6;24.2
78731;SHT31;68055;51.978;5.658;2023-06-04T13:25:51;28.6;24.6
78731;SHT31;68055;51.978;5.658;2023-06-04T13:28:21;28.6;24.7
78731;SHT31;68055;51.978;5.658;2023-06-04T13:30:50;28.5;24.9
78731;SHT31;68055;51.978;5.658;2023-06-04T13:33:20;28.5;25.0
78731;SHT31;68055;51.978;5.658;2023-06-04T13:35:49;28.5;24.7
78731;SHT31;68055;51.978;5.658;2023-06-04T13:38:20;28.5;24.2
78731;SHT31;68055;51.978;5.658;2023-06-04T13:40:52;28.5;24.0
78731;SHT31;68055;51.978;5.658;2023-06-04T13:43:21;28.5;24.7
78731;SHT31;68055;51.978;5.658;2023-06-04T13:45:51;28.4;24.3
78731;SHT31;68055;51.978;5.658;2023-06-04T13:48:23;28.4;24.7
78731;SHT31;68055;51.978;5.658;2023-06-04T13:50:52;28.4;24.6
78731;SHT31;68055;51.978;5.658;2023-06-04T13:53:22;28.4;24.9
78731;SHT31;68055;51.978;5.658;2023-06-04T13:55:51;28.4;24.5
78731;SHT31;68055;51.978;5.658;2023-06-04T13:58:26;28.4;24.7
78731;SHT31;68055;51.978;5.658;2023-06-04T14:00:57;28.4;24.9
78731;SHT31;68055;51.978;5.658;2023-06-04T14:03:27;28.3;24.3
78731;SHT31;68055;51.978;5.658;2023-06-04T14:05:58;28.3;24.6
78731;SHT31;68055;51.978;5.658;2023-06-04T14:08:28;28.3;25.1
78731;SHT31;68055;51.978;5.658;2023-06-04T14:10:59;28.2;25.0
78731;SHT31;68055;51.978;5.658;2023-06-04T14:13:28;28.2;25.3
78731;SHT31;68055;51.978;5.658;2023-06-04T14:15:58;28.2;24.8
78731;SHT31;68055;51.978;5.658;2023-06-04T14:18:27;28.2;24.7
78731;SHT31;68055;51.978;5.658;2023-06-04T14:20:57;28.1;25.3
78731;SHT31;68055;51.978;5.658;2023-06-04T14:23:27;28.1;24.8
78731;SHT31;68055;51.978;5.658;2023-06-04T14:25:58;28.1;24.7
78731;SHT31;68055;51.978;5.658;2023-06-04T14:28:28;28.0;24.1
78731;SHT31;68055;51.978;5.658;2023-06-04T14:30:58;28.0;24.7
78731;SHT31;68055;51.978;5.658;2023-06-04T14:33:29;28.0;24.3
78731;SHT31;68055;51.978;5.658;2023-06-04T14:35:59;27.9;25.2
78731;SHT31;68055;51.978;5.658;2023-06-04T14:38:29;27.9;25.6
78731;SHT31;68055;51.978;5.658;2023-06-04T14:40:59;27.9;25.4
78731;SHT31;68055;51.978;5.658;2023-06-04T14:43:28;27.9;25.6
78731;SHT31;68055;51.978;5.658;2023-06-04T14:45:58;27.9;26.0
78731;SHT31;68055;51.978;5.658;2023-06-04T14:48:28;27.9;25.0
78731;SHT31;68055;51.978;5.658;2023-06-04T14:50:57;27.8;25.2
78731;SHT31;68055;51.978;5.658;2023-06-04T14:53:27;27.8;25.4
78731;SHT31;68055;51.978;5.658;2023-06-04T14:55:57;27.8;25.1
78731;SHT31;68055;51.978;5.658;2023-06-04T14:58:27;27.8;25.8
78731;SHT31;68055;51.978;5.658;2023-06-04T15:00:56;27.8;25.4
78731;SHT31;68055;51.978;5.658;2023-06-04T15:03:26;27.8;25.2
78731;SHT31;68055;51.978;5.658;2023-06-04T15:05:56;27.8;25.5
78731;SHT31;68055;51.978;5.658;2023-06-04T15:08:28;27.8;25.7
78731;SHT31;68055;51.978;5.658;2023-06-04T15:10:57;27.8;25.4
78731;SHT31;68055;51.978;5.658;2023-06-04T15:13:27;27.8;25.8
78731;SHT31;68055;51.978;5.658;2023-06-04T15:15:56;27.7;25.1
78731;SHT31;68055;51.978;5.658;2023-06-04T15:18:26;27.7;25.4
78731;SHT31;68055;51.978;5.658;2023-06-04T15:20:55;27.7;25.7
78731;SHT31;68055;51.978;5.658;2023-06-04T15:23:27;27.6;26.0
78731;SHT31;68055;51.978;5.658;2023-06-04T15:25:57;27.6;25.8
78731;SHT31;68055;51.978;5.658;2023-06-04T15:28:27;27.5;26.2
78731;SHT31;68055;51.978;5.658;2023-06-04T15:30:56;27.5;26.4
78731;SHT31;68055;51.978;5.658;2023-06-04T15:33:26;27.5;26.5
78731;SHT31;68055;51.978;5.658;2023-06-04T15:35:58;27.5;26.1
78731;SHT31;68055;51.978;5.658;2023-06-04T15:38:27;27.5;26.2
78731;SHT31;68055;51.978;5.658;2023-06-04T15:40:59;27.4;26.2
78731;SHT31;68055;51.978;5.658;2023-06-04T15:43:29;27.4;26.2
78731;SHT31;68055;51.978;5.658;2023-06-04T15:45:58;27.4;26.0
78731;SHT31;68055;51.978;5.658;2023-06-04T15:48:28;27.3;26.0
78731;SHT31;68055;51.978;5.658;2023-06-04T15:50:59;27.3;26.3
78731;SHT31;68055;51.978;5.658;2023-06-04T15:53:29;27.3;26.5
78731;SHT31;68055;51.978;5.658;2023-06-04T15:55:58;27.2;26.0
78731;SHT31;68055;51.978;5.658;2023-06-04T15:58:28;27.2;26.3
78731;SHT31;68055;51.978;5.658;2023-06-04T16:00:58;27.2;26.3
78731;SHT31;68055;51.978;5.658;2023-06-04T16:03:27;27.2;26.4
78731;SHT31;68055;51.978;5.658;2023-06-04T16:05:57;27.1;26.4
78731;SHT31;68055;51.978;5.658;2023-06-04T16:08:27;27.1;26.8
78731;SHT31;68055;51.978;5.658;2023-06-04T16:10:56;27.1;26.4
78731;SHT31;68055;51.978;5.658;2023-06-04T16:13:26;27.1;27.0
78731;SHT31;68055;51.978;5.658;2023-06-04T16:15:57;27.1;26.3
78731;SHT31;68055;51.978;5.658;2023-06-04T16:18:28;27.1;26.6
78731;SHT31;68055;51.978;5.658;2023-06-04T16:20:58;27.0;27.0
78731;SHT31;68055;51.978;5.658;2023-06-04T16:23:27;27.0;26.8